createdAt,value
2019-05-10T00:00:17.563Z,12.80
2019-05-10T00:03:05.739Z,12.90
2019-05-10T00:05:53.823Z,13.00
2019-05-10T00:08:41.829Z,13.00
2019-05-10T00:11:23.816Z,13.20
2019-05-10T00:14:01.050Z,13.20
2019-05-10T00:16:31.978Z,13.20
2019-05-10T00:19:04.424Z,13.20
2019-05-10T00:21:35.326Z,13.10
2019-05-10T00:24:06.138Z,13.00
2019-05-10T00:26:36.979Z,13.10
2019-05-10T00:29:07.970Z,13.20
2019-05-10T00:31:38.806Z,13.20
2019-05-10T00:34:09.608Z,13.20
2019-05-10T00:36:40.508Z,13.20
2019-05-10T00:39:11.331Z,13.10
2019-05-10T00:41:42.193Z,13.00
2019-05-10T00:44:13.118Z,13.00
2019-05-10T00:46:44.228Z,12.90
2019-05-10T00:49:15.128Z,13.00
2019-05-10T00:51:46.197Z,13.00
2019-05-10T00:54:17.024Z,13.10
2019-05-10T00:56:47.923Z,13.10
2019-05-10T00:59:18.827Z,13.20
2019-05-10T01:01:49.676Z,13.20
2019-05-10T01:04:20.578Z,13.10
2019-05-10T01:06:51.383Z,13.10
2019-05-10T01:09:22.208Z,13.20
2019-05-10T01:11:52.961Z,13.10
2019-05-10T01:14:24.003Z,13.10
2019-05-10T01:16:54.858Z,13.10
2019-05-10T01:19:25.646Z,13.20
2019-05-10T01:21:56.604Z,13.10
2019-05-10T01:24:27.424Z,12.80
2019-05-10T01:26:58.259Z,12.60
2019-05-10T01:29:29.043Z,12.60
2019-05-10T01:31:59.973Z,12.70
2019-05-10T01:34:30.733Z,12.60
2019-05-10T01:37:01.863Z,12.60
2019-05-10T01:39:32.688Z,12.60
2019-05-10T01:42:03.382Z,12.80
2019-05-10T01:44:34.415Z,12.90
2019-05-10T01:47:05.228Z,12.90
2019-05-10T01:49:36.043Z,12.90
2019-05-10T01:52:06.888Z,13.00
2019-05-10T01:54:37.728Z,13.00
2019-05-10T01:57:08.445Z,13.10
2019-05-10T01:59:39.519Z,13.00
2019-05-10T02:02:10.324Z,13.10
2019-05-10T02:04:41.257Z,13.10
2019-05-10T02:07:12.059Z,13.00
2019-05-10T02:09:42.854Z,13.00
2019-05-10T02:12:13.704Z,13.00
2019-05-10T02:14:44.493Z,12.90
2019-05-10T02:17:15.284Z,12.80
2019-05-10T02:19:46.103Z,12.80
2019-05-10T02:22:16.959Z,12.60
2019-05-10T02:24:47.723Z,12.50
2019-05-10T02:27:18.556Z,12.50
2019-05-10T02:29:49.409Z,12.40
2019-05-10T02:32:20.215Z,12.40
2019-05-10T02:34:51.132Z,12.30
2019-05-10T02:37:21.979Z,12.40
2019-05-10T02:39:52.843Z,12.40
2019-05-10T02:42:23.630Z,12.40
2019-05-10T02:44:54.485Z,12.30
2019-05-10T02:47:25.343Z,12.30
2019-05-10T02:49:59.008Z,12.20
2019-05-10T02:52:28.661Z,12.20
2019-05-10T02:55:00.482Z,12.20
2019-05-10T02:57:31.613Z,12.20
2019-05-10T03:00:04.223Z,12.20
2019-05-10T03:02:35.974Z,12.10
2019-05-10T03:05:07.074Z,11.90
2019-05-10T03:07:40.313Z,11.80
2019-05-10T03:10:13.874Z,11.70
2019-05-10T03:12:45.010Z,11.70
2019-05-10T03:15:16.079Z,11.50
2019-05-10T03:17:48.028Z,11.40
2019-05-10T03:20:19.089Z,11.50
2019-05-10T03:22:50.305Z,11.50
2019-05-10T03:25:21.335Z,11.50
2019-05-10T03:27:52.636Z,11.40
2019-05-10T03:30:23.733Z,11.10
2019-05-10T03:32:54.732Z,11.00
2019-05-10T03:35:25.845Z,11.00
2019-05-10T03:37:56.690Z,11.10
2019-05-10T03:40:27.570Z,11.20
2019-05-10T03:42:58.325Z,11.30
2019-05-10T03:45:29.264Z,11.40
2019-05-10T03:48:00.228Z,11.40
2019-05-10T03:50:31.065Z,11.50
2019-05-10T03:53:01.938Z,11.50
2019-05-10T03:55:33.129Z,11.60
2019-05-10T03:58:03.989Z,11.60
2019-05-10T04:00:34.861Z,11.60
2019-05-10T04:03:05.855Z,11.60
2019-05-10T04:05:36.839Z,11.60
2019-05-10T04:08:07.834Z,11.60
2019-05-10T04:10:38.694Z,11.60
2019-05-10T04:13:09.455Z,11.60
2019-05-10T04:15:40.353Z,11.60
2019-05-10T04:18:11.306Z,11.60
2019-05-10T04:20:42.169Z,11.60
2019-05-10T04:23:12.945Z,11.60
2019-05-10T04:25:43.829Z,11.60
2019-05-10T04:28:14.621Z,11.60
2019-05-10T04:30:45.448Z,11.60
2019-05-10T04:33:16.403Z,11.60
2019-05-10T04:35:47.279Z,11.70
2019-05-10T04:38:18.036Z,11.70
2019-05-10T04:40:48.844Z,11.70
2019-05-10T04:43:19.616Z,11.70
2019-05-10T04:45:50.437Z,11.80
2019-05-10T04:48:21.274Z,11.80
2019-05-10T04:50:52.056Z,11.80
2019-05-10T04:53:22.925Z,11.80
2019-05-10T04:55:54.088Z,11.90
2019-05-10T04:58:24.874Z,11.90
2019-05-10T05:00:55.624Z,12.00
2019-05-10T05:03:26.519Z,12.00
2019-05-10T05:05:57.478Z,12.10
2019-05-10T05:08:28.279Z,12.20
2019-05-10T05:10:59.113Z,12.20
2019-05-10T05:13:29.814Z,12.30
2019-05-10T05:16:00.545Z,12.30
2019-05-10T05:18:31.463Z,12.40
2019-05-10T05:21:02.260Z,12.50
2019-05-10T05:23:33.034Z,12.60
2019-05-10T05:26:03.971Z,12.70
2019-05-10T05:28:34.784Z,12.70
2019-05-10T05:31:05.624Z,12.90
2019-05-10T05:33:36.673Z,13.00
2019-05-10T05:36:07.454Z,13.10
2019-05-10T05:38:40.655Z,13.20
2019-05-10T05:41:10.633Z,13.30
2019-05-10T05:43:46.334Z,13.30
2019-05-10T05:46:14.596Z,13.40
2019-05-10T05:48:45.721Z,13.50
2019-05-10T05:51:16.469Z,13.50
2019-05-10T05:53:47.480Z,13.60
2019-05-10T05:56:18.346Z,13.70
2019-05-10T05:58:49.213Z,13.80
2019-05-10T06:01:26.409Z,13.80
2019-05-10T06:03:52.608Z,14.00
2019-05-10T06:06:23.714Z,14.00
2019-05-10T06:08:59.269Z,14.10
2019-05-10T06:11:29.734Z,14.20
2019-05-10T06:14:03.701Z,14.20
2019-05-10T06:16:31.959Z,14.30
2019-05-10T06:19:02.779Z,14.30
2019-05-10T06:21:33.768Z,14.20
2019-05-10T06:24:07.561Z,14.30
2019-05-10T06:26:37.269Z,14.40
2019-05-10T06:29:16.366Z,14.60
2019-05-10T06:31:40.799Z,14.60
2019-05-10T06:34:11.988Z,14.70
2019-05-10T06:36:42.818Z,14.80
2019-05-10T06:39:13.749Z,14.90
2019-05-10T06:41:49.753Z,15.00
2019-05-10T06:44:17.183Z,15.00
2019-05-10T06:46:48.308Z,15.00
2019-05-10T06:49:19.355Z,15.10
2019-05-10T06:51:51.018Z,15.00
2019-05-10T06:54:21.820Z,15.10
2019-05-10T06:56:52.653Z,15.20
2019-05-10T06:59:25.046Z,15.20
2019-05-10T07:01:56.259Z,15.30
2019-05-10T07:04:28.257Z,15.40
2019-05-10T07:06:59.190Z,15.40
2019-05-10T07:10:01.722Z,15.40
2019-05-10T07:12:57.264Z,15.60
2019-05-10T07:15:26.658Z,15.90
2019-05-10T07:17:57.548Z,16.10
2019-05-10T07:20:29.632Z,16.20
2019-05-10T07:23:06.075Z,16.20
2019-05-10T07:25:37.726Z,16.30
2019-05-10T07:28:09.497Z,16.30
2019-05-10T07:30:41.240Z,16.40
2019-05-10T07:33:12.072Z,16.40
2019-05-10T07:35:42.855Z,16.60
2019-05-10T07:38:13.734Z,16.60
2019-05-10T07:40:44.715Z,16.60
2019-05-10T07:43:24.847Z,16.30
2019-05-10T07:45:48.064Z,16.20
2019-05-10T07:48:18.915Z,16.10
2019-05-10T07:50:51.944Z,16.30
2019-05-10T07:53:23.143Z,16.60
2019-05-10T07:56:00.007Z,16.70
2019-05-10T07:58:27.664Z,16.20
2019-05-10T08:00:58.529Z,16.30
2019-05-10T08:03:29.956Z,16.60
2019-05-10T08:06:02.099Z,16.80
2019-05-10T08:08:33.215Z,16.90
2019-05-10T08:11:04.174Z,16.90
2019-05-10T08:13:35.073Z,17.10
2019-05-10T08:16:11.898Z,17.20
2019-05-10T08:18:39.809Z,17.30
2019-05-10T08:21:21.402Z,17.30
2019-05-10T08:23:43.796Z,17.30
2019-05-10T08:26:20.212Z,17.30
2019-05-10T08:28:47.538Z,17.20
2019-05-10T08:31:18.583Z,17.40
2019-05-10T08:33:56.336Z,17.50
2019-05-10T08:36:21.974Z,17.50
2019-05-10T08:39:05.118Z,17.60
2019-05-10T08:41:25.334Z,17.90
2019-05-10T08:43:56.220Z,17.90
2019-05-10T08:46:34.978Z,17.50
2019-05-10T08:49:01.938Z,17.70
2019-05-10T08:51:34.381Z,17.80
2019-05-10T08:54:05.099Z,18.20
2019-05-10T08:56:35.889Z,18.30
2019-05-10T08:59:09.308Z,18.30
2019-05-10T09:01:46.481Z,18.30
2019-05-10T09:04:13.807Z,18.40
2019-05-10T09:06:47.598Z,18.40
2019-05-10T09:09:16.824Z,18.60
2019-05-10T09:11:47.835Z,18.80
2019-05-10T09:14:20.258Z,18.80
2019-05-10T09:17:00.884Z,18.70
2019-05-10T09:19:27.736Z,18.80
2019-05-10T09:21:56.104Z,19.10
2019-05-10T09:24:26.944Z,19.20
2019-05-10T09:26:57.852Z,19.20
2019-05-10T09:29:37.243Z,19.00
2019-05-10T09:32:06.927Z,19.20
2019-05-10T09:34:38.014Z,19.50
2019-05-10T09:37:14.303Z,19.30
2019-05-10T09:39:42.368Z,19.40
2019-05-10T09:42:24.951Z,19.70
2019-05-10T09:44:46.139Z,19.80
2019-05-10T09:47:17.029Z,19.50
2019-05-10T09:49:54.043Z,19.50
2019-05-10T09:52:20.424Z,19.60
2019-05-10T09:54:51.239Z,19.80
2019-05-10T09:57:22.076Z,19.80
2019-05-10T09:59:52.894Z,19.50
2019-05-10T10:02:27.395Z,19.80
2019-05-10T10:04:58.605Z,19.90
2019-05-10T10:07:33.315Z,19.90
2019-05-10T10:10:01.342Z,19.50
2019-05-10T10:12:32.199Z,18.50
2019-05-10T10:15:03.029Z,19.00
2019-05-10T10:17:38.671Z,19.50
2019-05-10T10:20:08.339Z,19.90
2019-05-10T10:22:43.444Z,20.20
2019-05-10T10:25:11.494Z,20.20
2019-05-10T10:27:42.354Z,20.10
2019-05-10T10:30:20.718Z,20.00
2019-05-10T10:32:47.779Z,20.00
2019-05-10T10:35:24.132Z,20.30
2019-05-10T10:37:50.969Z,20.30
2019-05-10T10:40:21.825Z,20.50
2019-05-10T10:42:52.704Z,20.70
2019-05-10T10:45:24.319Z,20.70
2019-05-10T10:47:57.127Z,20.90
2019-05-10T10:50:28.474Z,21.00
2019-05-10T10:52:59.289Z,21.00
2019-05-10T10:55:36.249Z,21.10
2019-05-10T10:58:03.059Z,21.30
2019-05-10T11:00:38.705Z,21.40
2019-05-10T11:03:08.264Z,21.70
2019-05-10T11:05:38.999Z,21.60
2019-05-10T11:08:14.503Z,21.30
2019-05-10T11:10:45.464Z,21.20
2019-05-10T11:13:23.736Z,21.60
2019-05-10T11:15:51.594Z,21.80
2019-05-10T11:18:22.619Z,21.70
2019-05-10T11:20:54.177Z,21.80
2019-05-10T11:23:36.668Z,21.90
2019-05-10T11:25:57.609Z,22.00
2019-05-10T11:28:30.082Z,21.50
2019-05-10T11:31:01.162Z,20.30
2019-05-10T11:33:33.710Z,20.20
2019-05-10T11:36:08.558Z,21.30
2019-05-10T11:38:37.020Z,21.70
2019-05-10T11:41:13.527Z,21.30
2019-05-10T11:43:41.885Z,21.00
2019-05-10T11:46:12.463Z,21.30
2019-05-10T11:48:43.209Z,20.70
2019-05-10T11:51:17.297Z,20.70
2019-05-10T11:53:48.824Z,21.20
2019-05-10T11:56:26.848Z,21.90
2019-05-10T12:01:24.884Z,22.80
2019-05-10T12:03:55.629Z,23.00
2019-05-10T12:06:26.831Z,23.20
2019-05-10T12:09:02.058Z,23.20
2019-05-10T12:11:33.817Z,23.10
2019-05-10T12:14:03.919Z,23.40
2019-05-10T12:16:34.539Z,23.50
2019-05-10T12:19:15.854Z,23.50
2019-05-10T12:21:38.309Z,23.60
2019-05-10T12:24:26.340Z,23.60
2019-05-10T12:26:17.889Z,22.40
2019-05-10T12:29:17.071Z,23.50
2019-05-10T12:31:52.152Z,23.80
2019-05-10T12:34:20.737Z,24.00
2019-05-10T12:36:52.067Z,23.70
2019-05-10T12:39:23.079Z,23.30
2019-05-10T12:41:53.940Z,23.50
2019-05-10T12:44:24.779Z,24.00
2019-05-10T12:46:55.689Z,23.00
2019-05-10T12:49:26.585Z,23.30
2019-05-10T12:51:57.454Z,24.00
2019-05-10T12:54:28.464Z,24.50
2019-05-10T12:56:59.269Z,25.00
2019-05-10T12:59:34.824Z,25.10
2019-05-10T13:02:04.622Z,25.40
2019-05-10T13:04:40.388Z,25.40
2019-05-10T13:07:07.404Z,25.20
2019-05-10T13:09:40.849Z,25.40
2019-05-10T13:12:10.869Z,25.30
2019-05-10T13:14:46.669Z,25.40
2019-05-10T13:17:16.861Z,25.50
2019-05-10T13:19:46.869Z,25.70
2019-05-10T13:22:17.770Z,27.20
2019-05-10T13:24:48.709Z,28.50
2019-05-10T13:27:19.759Z,29.90
2019-05-10T13:29:53.496Z,30.40
2019-05-10T13:32:23.079Z,30.40
2019-05-10T13:34:54.104Z,30.60
2019-05-10T13:37:25.369Z,30.90
2019-05-10T13:39:58.415Z,30.70
2019-05-10T13:42:28.825Z,31.00
2019-05-10T13:44:59.634Z,29.50
2019-05-10T13:47:31.675Z,29.70
2019-05-10T13:50:02.960Z,29.20
2019-05-10T13:52:38.001Z,30.00
2019-05-10T13:55:06.439Z,30.70
2019-05-10T13:57:37.435Z,31.30
2019-05-10T14:00:08.840Z,31.30
2019-05-10T14:02:42.006Z,30.20
2019-05-10T14:05:17.472Z,29.70
2019-05-10T14:07:51.973Z,29.50
2019-05-10T14:19:38.529Z,30.40
2019-05-10T14:22:09.424Z,31.10
2019-05-10T14:24:40.299Z,31.80
2019-05-10T14:27:11.230Z,32.30
2019-05-10T14:29:42.334Z,31.90
2019-05-10T14:32:13.744Z,31.60
2019-05-10T14:34:46.331Z,30.40
2019-05-10T14:37:19.707Z,30.90
2019-05-10T14:39:50.814Z,32.40
2019-05-10T14:42:23.810Z,34.00
2019-05-10T14:44:54.409Z,34.90
2019-05-10T14:47:25.359Z,34.00
2019-05-10T14:49:56.112Z,34.60
2019-05-10T14:52:27.344Z,33.90
2019-05-10T14:54:58.134Z,31.60
2019-05-10T14:57:28.969Z,31.90
2019-05-10T15:00:00.159Z,30.70
2019-05-10T15:02:32.255Z,29.30
2019-05-10T15:05:09.111Z,28.40
2019-05-10T15:07:36.493Z,28.50
2019-05-10T15:10:15.740Z,29.40
2019-05-10T15:12:46.839Z,29.30
2019-05-10T15:15:19.777Z,29.50
2019-05-10T15:17:55.246Z,27.80
2019-05-10T15:20:23.639Z,28.00
2019-05-10T15:22:55.524Z,29.60
2019-05-10T15:25:26.719Z,30.90
2019-05-10T15:28:00.176Z,31.60
2019-05-10T15:30:30.389Z,31.60
2019-05-10T15:33:01.479Z,31.30
2019-05-10T15:35:32.424Z,31.00
2019-05-10T15:38:03.586Z,31.10
2019-05-10T15:40:38.699Z,31.20
2019-05-10T15:43:10.371Z,31.30
2019-05-10T15:45:40.370Z,30.70
2019-05-10T15:48:12.014Z,31.20
2019-05-10T15:50:42.819Z,31.10
2019-05-10T15:53:19.456Z,29.80
2019-05-10T15:55:46.735Z,30.50
2019-05-10T15:58:17.982Z,29.50
2019-05-10T16:00:49.418Z,29.90
2019-05-10T16:03:21.280Z,30.20
2019-05-10T16:06:00.784Z,31.80
2019-05-10T16:08:30.303Z,31.30
2019-05-10T16:10:58.834Z,31.00
2019-05-10T16:13:30.309Z,31.50
2019-05-10T16:16:01.416Z,31.30
2019-05-10T16:18:39.781Z,31.40
2019-05-10T16:21:09.585Z,31.70
2019-05-10T16:23:41.299Z,31.60
2019-05-10T16:26:11.149Z,31.00
2019-05-10T16:28:43.906Z,31.00
2019-05-10T16:31:15.321Z,31.20
2019-05-10T16:33:48.403Z,31.50
2019-05-10T16:36:27.755Z,31.00
2019-05-10T16:38:53.958Z,31.10
2019-05-10T16:41:26.915Z,31.50
2019-05-10T16:44:00.092Z,32.00
2019-05-10T16:46:31.249Z,31.90
2019-05-10T16:49:03.470Z,31.20
2019-05-10T16:51:34.749Z,30.90
2019-05-10T16:54:05.889Z,30.80
2019-05-10T16:56:36.799Z,31.10
2019-05-10T16:59:07.823Z,31.00
2019-05-10T17:01:38.935Z,31.10
2019-05-10T17:04:10.583Z,30.60
2019-05-10T17:06:42.012Z,30.10
2019-05-10T17:09:18.223Z,30.20
2019-05-10T17:11:49.324Z,30.20
2019-05-10T17:14:20.549Z,30.60
2019-05-10T17:16:58.265Z,30.80
2019-05-10T17:19:27.943Z,30.70
2019-05-10T17:21:57.523Z,29.90
2019-05-10T17:24:29.269Z,30.90
2019-05-10T17:27:00.085Z,30.90
2019-05-10T17:29:31.524Z,31.00
2019-05-10T17:32:03.186Z,31.40
2019-05-10T17:34:34.429Z,31.60
2019-05-10T17:37:05.774Z,31.00
2019-05-10T17:39:36.934Z,30.90
2019-05-10T17:42:08.199Z,30.60
2019-05-10T17:44:43.262Z,30.30
2019-05-10T17:47:12.664Z,28.50
2019-05-10T17:49:43.581Z,27.40
2019-05-10T17:52:14.894Z,26.40
2019-05-10T17:54:46.328Z,26.50
2019-05-10T17:57:18.442Z,26.30
2019-05-10T17:59:52.793Z,26.60
2019-05-10T18:02:22.938Z,27.10
2019-05-10T18:04:59.540Z,27.30
2019-05-10T18:07:27.454Z,27.10
2019-05-10T18:10:01.401Z,26.40
2019-05-10T18:12:32.779Z,26.30
2019-05-10T18:15:05.017Z,26.30
2019-05-10T18:17:37.139Z,25.90
2019-05-10T18:20:08.480Z,25.50
2019-05-10T18:22:43.096Z,25.00
2019-05-10T18:25:19.354Z,24.70
2019-05-10T18:27:45.419Z,24.40
2019-05-10T18:30:17.264Z,23.90
2019-05-10T18:32:48.239Z,23.60
2019-05-10T18:35:19.894Z,23.20
2019-05-10T18:37:53.552Z,22.90
2019-05-10T18:40:25.103Z,22.30
2019-05-10T18:43:03.041Z,21.70
2019-05-10T18:45:30.484Z,21.60
2019-05-10T18:48:02.354Z,21.20
2019-05-10T18:50:33.844Z,21.00
2019-05-10T18:53:04.794Z,20.90
2019-05-10T18:55:36.149Z,20.80
2019-05-10T18:58:07.159Z,20.80
2019-05-10T19:00:40.292Z,20.60
2019-05-10T19:03:11.339Z,20.50
2019-05-10T19:05:42.264Z,20.40
2019-05-10T19:08:13.831Z,20.20
2019-05-10T19:10:44.749Z,20.00
2019-05-10T19:13:16.310Z,19.80
2019-05-10T19:15:52.859Z,19.80
2019-05-10T19:18:23.230Z,19.70
2019-05-10T19:20:55.100Z,19.80
2019-05-10T19:23:25.849Z,19.60
2019-05-10T19:25:56.715Z,19.60
2019-05-10T19:28:28.544Z,19.50
2019-05-10T19:31:00.488Z,19.50
2019-05-10T19:33:36.313Z,19.50
2019-05-10T19:36:12.480Z,19.50
2019-05-10T19:38:37.425Z,19.40
2019-05-10T19:41:08.156Z,19.30
2019-05-10T19:43:38.987Z,19.30
2019-05-10T19:46:10.654Z,19.10
2019-05-10T19:48:41.524Z,18.70
2019-05-10T19:51:12.896Z,18.50
2019-05-10T19:53:44.053Z,18.60
2019-05-10T19:56:15.281Z,18.60
2019-05-10T19:58:49.190Z,18.50
2019-05-10T20:01:19.631Z,18.20
2019-05-10T20:03:50.949Z,18.00
2019-05-10T20:06:21.826Z,18.00
2019-05-10T20:08:53.226Z,17.80
2019-05-10T20:11:24.579Z,17.70
2019-05-10T20:13:55.614Z,17.60
2019-05-10T20:16:27.374Z,17.60
2019-05-10T20:18:58.239Z,17.60
2019-05-10T20:21:29.663Z,17.60
2019-05-10T20:24:00.859Z,17.50
2019-05-10T20:26:32.079Z,17.20
2019-05-10T20:29:03.355Z,17.10
2019-05-10T20:31:34.494Z,16.80
2019-05-10T20:34:05.711Z,16.80
2019-05-10T20:36:36.834Z,16.80
2019-05-10T20:39:08.329Z,16.70
2019-05-10T20:41:39.449Z,16.60
2019-05-10T20:44:10.634Z,16.70
2019-05-10T20:46:42.021Z,16.60
2019-05-10T20:49:13.179Z,16.60
2019-05-10T20:51:44.539Z,16.60
2019-05-10T20:54:16.220Z,16.60
2019-05-10T20:56:47.822Z,16.60
2019-05-10T20:59:19.119Z,16.70
2019-05-10T21:01:50.864Z,16.70
2019-05-10T21:04:22.300Z,16.80
2019-05-10T21:06:53.527Z,16.80
2019-05-10T21:09:25.001Z,16.70
2019-05-10T21:11:56.389Z,16.70
2019-05-10T21:14:27.419Z,16.60
2019-05-10T21:16:58.979Z,16.70
2019-05-10T21:19:29.915Z,16.70
2019-05-10T21:22:01.169Z,16.70
2019-05-10T21:24:32.259Z,16.70
2019-05-10T21:27:03.395Z,16.70
2019-05-10T21:29:35.984Z,16.50
2019-05-10T21:32:07.917Z,16.50
2019-05-10T21:34:38.818Z,16.70
2019-05-10T21:37:10.544Z,16.70
2019-05-10T21:39:42.009Z,16.60
2019-05-10T21:42:13.382Z,16.60
2019-05-10T21:44:45.263Z,16.70
2019-05-10T21:47:16.414Z,16.40
2019-05-10T21:49:47.509Z,16.40
2019-05-10T21:52:18.379Z,16.40
2019-05-10T21:54:49.473Z,16.40
2019-05-10T21:57:20.984Z,16.20
2019-05-10T21:59:51.984Z,16.20
2019-05-10T22:02:22.669Z,16.20
2019-05-10T22:04:53.784Z,16.20
2019-05-10T22:07:24.549Z,16.10
2019-05-10T22:09:55.439Z,16.00
2019-05-10T22:12:26.854Z,16.00
2019-05-10T22:14:58.214Z,15.90
2019-05-10T22:17:29.458Z,16.00
2019-05-10T22:20:00.564Z,15.90
2019-05-10T22:22:31.900Z,15.80
2019-05-10T22:25:03.008Z,15.90
2019-05-10T22:27:34.359Z,15.80
2019-05-10T22:30:06.109Z,15.80
2019-05-10T22:32:37.386Z,15.50
2019-05-10T22:35:09.234Z,15.60
2019-05-10T22:37:41.046Z,15.50
2019-05-10T22:40:12.708Z,15.50
2019-05-10T22:42:47.540Z,15.50
2019-05-10T22:45:19.004Z,15.60
2019-05-10T22:47:50.240Z,15.50
2019-05-10T22:50:22.002Z,15.50
2019-05-10T22:52:53.394Z,15.50
2019-05-10T22:55:24.556Z,15.50
2019-05-10T22:57:55.899Z,15.40
2019-05-10T23:00:27.839Z,15.40
2019-05-10T23:02:59.634Z,15.40
2019-05-10T23:05:31.369Z,15.40
2019-05-10T23:08:02.729Z,15.40
2019-05-10T23:10:34.159Z,15.40
2019-05-10T23:13:05.548Z,15.30
2019-05-10T23:15:37.083Z,15.30
2019-05-10T23:18:08.843Z,15.10
2019-05-10T23:20:40.459Z,14.80
2019-05-10T23:23:11.680Z,14.70
2019-05-10T23:25:44.193Z,14.80
2019-05-10T23:28:15.364Z,14.80
2019-05-10T23:30:46.839Z,14.50
2019-05-10T23:33:19.234Z,14.20
2019-05-10T23:35:50.779Z,14.00
2019-05-10T23:38:22.485Z,13.90
2019-05-10T23:40:53.619Z,13.70
2019-05-10T23:43:25.706Z,13.90
2019-05-10T23:45:57.223Z,13.90
2019-05-10T23:48:28.851Z,13.90
2019-05-10T23:51:00.090Z,14.00
2019-05-10T23:53:31.434Z,14.10
2019-05-10T23:56:02.325Z,13.90
2019-05-10T23:58:33.224Z,13.90
